createdAt,value
2023-03-06T00:02:00.553Z,31.79
2023-03-06T00:04:27.921Z,31.39
2023-03-06T00:06:54.434Z,31.77
2023-03-06T00:09:22.282Z,30.91
2023-03-06T00:11:50.366Z,29.58
2023-03-06T00:14:17.217Z,30.10
2023-03-06T00:16:45.074Z,29.13
2023-03-06T00:19:12.643Z,29.44
2023-03-06T00:21:39.120Z,29.57
2023-03-06T00:24:05.663Z,31.93
2023-03-06T00:26:32.277Z,33.77
2023-03-06T00:28:58.855Z,34.31
2023-03-06T00:31:27.622Z,33.04
2023-03-06T00:33:57.528Z,32.47
2023-03-06T00:36:23.996Z,32.12
2023-03-06T00:38:50.405Z,33.17
2023-03-06T00:41:19.331Z,32.08
2023-03-06T00:43:45.848Z,30.97
2023-03-06T00:46:12.915Z,31.32
2023-03-06T00:48:41.089Z,31.69
2023-03-06T00:51:07.623Z,31.67
2023-03-06T00:53:36.979Z,32.18
2023-03-06T00:56:03.883Z,31.51
2023-03-06T00:58:35.806Z,31.62
2023-03-06T01:01:05.903Z,31.06
2023-03-06T01:03:35.600Z,30.42
2023-03-06T01:06:02.125Z,29.86
2023-03-06T01:08:32.835Z,29.59
2023-03-06T01:11:01.348Z,29.13
2023-03-06T01:13:30.622Z,29.24
2023-03-06T01:15:57.142Z,29.93
2023-03-06T01:18:23.774Z,29.24
2023-03-06T01:20:52.837Z,29.94
2023-03-06T01:23:19.330Z,29.57
2023-03-06T01:25:48.463Z,30.03
2023-03-06T01:28:16.482Z,29.74
2023-03-06T01:30:43.105Z,30.77
2023-03-06T01:33:09.804Z,31.99
2023-03-06T01:35:37.616Z,31.91
2023-03-06T01:38:05.728Z,32.48
2023-03-06T01:40:32.554Z,32.57
2023-03-06T01:42:59.562Z,31.67
2023-03-06T01:45:27.389Z,31.75
2023-03-06T01:47:54.316Z,32.43
2023-03-06T01:50:21.194Z,31.78
2023-03-06T01:52:50.284Z,31.90
2023-03-06T01:55:17.835Z,31.93
2023-03-06T01:57:46.789Z,32.51
2023-03-06T02:00:14.630Z,32.44
2023-03-06T02:02:41.471Z,32.90
2023-03-06T02:05:08.033Z,32.41
2023-03-06T02:07:34.936Z,31.88
2023-03-06T02:10:01.733Z,31.69
2023-03-06T02:12:28.218Z,32.24
2023-03-06T02:14:54.839Z,33.03
2023-03-06T02:17:21.443Z,32.25
2023-03-06T02:19:49.985Z,32.20
2023-03-06T02:22:16.776Z,32.47
2023-03-06T02:24:43.774Z,32.19
2023-03-06T02:27:13.122Z,31.52
2023-03-06T02:29:39.768Z,31.41
2023-03-06T02:32:08.654Z,31.47
2023-03-06T02:34:36.959Z,30.79
2023-03-06T02:37:03.706Z,31.22
2023-03-06T02:39:30.499Z,30.95
2023-03-06T02:41:57.359Z,29.72
2023-03-06T02:44:24.275Z,28.83
2023-03-06T02:46:53.314Z,28.43
2023-03-06T02:49:26.566Z,27.91
2023-03-06T02:51:54.645Z,28.92
2023-03-06T02:54:21.705Z,28.68
2023-03-06T02:56:49.740Z,28.70
2023-03-06T02:59:16.634Z,28.52
2023-03-06T03:01:43.384Z,28.35
2023-03-06T03:04:09.947Z,29.42
2023-03-06T03:06:36.527Z,29.51
2023-03-06T03:09:08.981Z,30.56
2023-03-06T03:31:30.415Z,31.11
2023-03-06T03:39:31.652Z,32.31
2023-03-06T03:42:11.162Z,31.47
2023-03-06T03:46:19.877Z,30.79
2023-03-06T03:56:51.024Z,30.91
2023-03-06T04:11:37.104Z,30.99
2023-03-06T04:23:37.540Z,31.37
2023-03-06T04:34:21.798Z,29.87
2023-03-06T04:40:00.166Z,29.19
2023-03-06T05:01:51.942Z,27.52
2023-03-06T05:04:19.700Z,26.86
2023-03-06T05:06:52.688Z,27.46
2023-03-06T05:09:26.728Z,28.07
2023-03-06T05:11:53.196Z,27.45
2023-03-06T05:14:22.850Z,27.79
2023-03-06T05:53:20.031Z,28.62
2023-03-06T08:27:21.944Z,29.75
2023-03-06T08:32:32.374Z,30.54
2023-03-06T08:34:58.827Z,30.02
2023-03-06T08:37:28.138Z,30.96
2023-03-06T08:39:54.629Z,32.09
2023-03-06T08:42:21.078Z,31.26
2023-03-06T08:44:47.729Z,31.29
2023-03-06T08:47:14.142Z,31.63
2023-03-06T08:49:42.636Z,32.20
2023-03-06T08:52:10.097Z,31.64
2023-03-06T08:54:39.252Z,31.21
2023-03-06T08:57:05.814Z,31.91
2023-03-06T08:59:32.294Z,31.49
2023-03-06T09:04:49.394Z,31.93
2023-03-06T09:07:15.867Z,32.26
2023-03-06T09:09:42.261Z,31.92
2023-03-06T09:12:23.673Z,32.44
2023-03-06T09:14:56.274Z,32.68
2023-03-06T09:20:15.250Z,34.33
2023-03-06T09:30:59.197Z,37.26
2023-03-06T09:33:26.293Z,37.05
2023-03-06T09:35:53.008Z,34.93
2023-03-06T09:38:19.922Z,31.92
2023-03-06T09:40:46.472Z,32.44
2023-03-06T09:43:13.069Z,31.79
2023-03-06T09:45:39.645Z,29.14
2023-03-06T09:48:08.489Z,27.60
2023-03-06T09:50:35.031Z,28.14
2023-03-06T09:53:01.394Z,28.68
2023-03-06T09:55:27.772Z,28.81
2023-03-06T09:57:54.231Z,30.11
2023-03-06T10:00:20.713Z,29.40
2023-03-06T10:02:48.196Z,31.02
2023-03-06T10:05:17.525Z,29.60
2023-03-06T10:07:46.238Z,27.16
2023-03-06T15:36:54.879Z,12.41
2023-03-06T15:39:21.429Z,11.04
2023-03-06T15:41:48.082Z,11.12
2023-03-06T15:44:15.617Z,11.18
2023-03-06T15:46:42.343Z,11.52
2023-03-06T15:49:08.797Z,10.86
2023-03-06T15:51:35.577Z,11.27
2023-03-06T15:54:12.404Z,10.90
2023-03-06T15:56:39.407Z,11.19
2023-03-06T15:59:05.807Z,11.50
2023-03-06T16:01:32.356Z,11.07
2023-03-06T16:06:42.280Z,11.62
2023-03-06T16:09:16.291Z,11.62
2023-03-06T16:11:44.119Z,11.45
2023-03-06T16:14:10.622Z,12.15
2023-03-06T16:16:38.271Z,11.88
2023-03-06T16:19:06.051Z,11.57
2023-03-06T16:21:34.125Z,11.72
2023-03-06T16:24:00.706Z,11.88
2023-03-06T16:26:27.616Z,12.26
2023-03-06T16:29:02.103Z,12.06
2023-03-06T16:37:03.473Z,12.56
2023-03-06T16:39:34.178Z,12.88
2023-03-06T16:42:07.185Z,12.28
2023-03-06T16:44:38.702Z,12.51
2023-03-06T16:47:09.426Z,12.73
2023-03-06T16:49:36.026Z,12.67
2023-03-06T16:52:02.530Z,12.34
2023-03-06T16:54:33.775Z,12.31
2023-03-06T16:57:08.082Z,12.56
2023-03-06T16:59:35.213Z,12.89
2023-03-06T17:02:01.825Z,12.66
2023-03-06T17:04:28.515Z,13.42
2023-03-06T17:06:59.473Z,13.46
2023-03-06T17:09:28.126Z,13.53
2023-03-06T17:11:58.111Z,13.39
2023-03-06T17:14:33.838Z,13.76
2023-03-06T17:17:18.589Z,13.25
2023-03-06T17:19:46.334Z,14.14
2023-03-06T17:22:16.321Z,13.80
2023-03-06T17:24:43.232Z,14.00
2023-03-06T17:27:10.274Z,13.70
2023-03-06T17:29:37.707Z,12.81
2023-03-06T17:32:06.890Z,13.90
2023-03-06T17:34:33.791Z,13.93
2023-03-06T17:37:00.358Z,14.05
2023-03-06T17:39:26.773Z,13.91
2023-03-06T17:41:53.174Z,13.36
2023-03-06T17:44:23.023Z,13.82
2023-03-06T17:46:49.866Z,13.40
2023-03-06T17:49:16.681Z,13.66
2023-03-06T17:51:47.000Z,13.62
2023-03-06T17:54:13.544Z,13.76
2023-03-06T17:56:40.182Z,14.18
2023-03-06T17:59:06.787Z,14.27
2023-03-06T18:01:33.392Z,16.68
2023-03-06T18:03:59.766Z,18.82
2023-03-06T18:06:26.360Z,15.57
2023-03-06T18:08:56.692Z,15.86
2023-03-06T18:11:23.081Z,14.64
2023-03-06T18:13:49.762Z,14.84
2023-03-06T18:16:16.158Z,14.52
2023-03-06T18:18:44.946Z,13.73
2023-03-06T18:21:15.861Z,13.70
2023-03-06T18:23:42.317Z,13.56
2023-03-06T18:26:16.215Z,13.47
2023-03-06T18:28:46.048Z,12.91
2023-03-06T18:31:12.792Z,13.14
2023-03-06T18:33:39.351Z,12.96
2023-03-06T18:36:06.791Z,12.91
2023-03-06T18:38:34.935Z,13.10
2023-03-06T18:41:01.526Z,13.01
2023-03-06T18:43:27.998Z,13.55
2023-03-06T18:45:54.456Z,13.82
2023-03-06T18:48:21.103Z,13.24
2023-03-06T18:50:47.922Z,14.08
2023-03-06T18:53:17.352Z,14.05
2023-03-06T18:55:43.826Z,13.71
2023-03-06T18:58:10.475Z,13.69
2023-03-06T19:00:37.927Z,13.85
2023-03-06T19:03:06.576Z,14.12
2023-03-06T19:05:35.798Z,14.34
2023-03-06T19:08:02.464Z,13.73
2023-03-06T19:10:29.171Z,14.51
2023-03-06T19:12:56.859Z,14.37
2023-03-06T19:15:25.781Z,14.31
2023-03-06T19:17:52.387Z,14.12
2023-03-06T19:20:19.292Z,14.14
2023-03-06T19:22:45.916Z,14.14
2023-03-06T19:25:12.440Z,14.53
2023-03-06T19:27:38.921Z,14.61
2023-03-06T19:30:05.417Z,14.54
2023-03-06T19:32:32.259Z,14.52
2023-03-06T19:35:01.718Z,14.28
2023-03-06T19:37:28.186Z,14.72
2023-03-06T19:39:55.207Z,14.91
2023-03-06T19:42:21.598Z,14.69
2023-03-06T19:44:47.993Z,15.51
2023-03-06T19:47:14.337Z,14.72
2023-03-06T19:49:40.747Z,14.97
2023-03-06T19:52:09.334Z,14.82
2023-03-06T19:54:35.911Z,15.93
2023-03-06T19:57:02.312Z,15.21
2023-03-06T19:59:28.784Z,15.02
2023-03-06T20:01:55.201Z,14.90
2023-03-06T20:04:21.822Z,15.19
2023-03-06T20:06:48.768Z,15.11
2023-03-06T20:09:15.171Z,15.27
2023-03-06T20:11:41.531Z,15.02
2023-03-06T20:14:08.198Z,15.25
2023-03-06T20:16:34.651Z,15.81
2023-03-06T20:19:01.483Z,15.55
2023-03-06T20:21:28.121Z,14.75
2023-03-06T20:23:56.795Z,14.96
2023-03-06T20:26:23.147Z,14.73
2023-03-06T20:28:50.517Z,14.92
2023-03-06T20:31:18.001Z,14.97
2023-03-06T20:33:44.527Z,14.79
2023-03-06T20:36:10.948Z,15.27
2023-03-06T20:38:37.396Z,14.81
2023-03-06T20:41:03.871Z,14.26
2023-03-06T20:43:30.623Z,14.34
2023-03-06T20:45:57.372Z,14.50
2023-03-06T20:48:24.164Z,14.98
2023-03-06T20:50:50.801Z,14.82
2023-03-06T20:53:17.518Z,14.70
2023-03-06T20:55:44.178Z,15.34
2023-03-06T20:58:10.563Z,15.69
2023-03-06T21:00:36.924Z,15.62
2023-03-06T21:03:03.333Z,15.42
2023-03-06T21:05:29.832Z,15.52
2023-03-06T21:07:56.256Z,15.27
2023-03-06T21:10:23.691Z,15.31
2023-03-06T21:12:52.156Z,15.02
2023-03-06T21:15:18.678Z,14.91
2023-03-06T21:17:49.103Z,15.35
2023-03-06T21:20:15.860Z,15.44
2023-03-06T21:22:42.554Z,15.28
2023-03-06T21:25:09.984Z,15.14
2023-03-06T21:27:36.375Z,15.89
2023-03-06T21:30:02.791Z,15.41
2023-03-06T21:32:29.199Z,15.16
2023-03-06T21:34:55.600Z,15.33
2023-03-06T21:37:21.949Z,14.80
2023-03-06T21:39:48.353Z,14.96
2023-03-06T21:42:14.721Z,15.54
2023-03-06T21:44:41.147Z,15.10
2023-03-06T21:47:07.539Z,14.64
2023-03-06T21:49:33.939Z,14.28
2023-03-06T21:52:00.350Z,15.05
2023-03-06T21:54:26.742Z,15.56
2023-03-06T21:57:00.819Z,14.96
2023-03-06T21:59:27.210Z,14.89
2023-03-06T22:01:53.610Z,14.97
2023-03-06T22:04:20.017Z,15.44
2023-03-06T22:06:46.489Z,15.25
2023-03-06T22:09:12.863Z,15.28
2023-03-06T22:11:39.208Z,14.76
2023-03-06T22:14:05.918Z,14.77
2023-03-06T22:16:32.321Z,14.95
2023-03-06T22:18:58.864Z,14.97
2023-03-06T22:21:26.303Z,14.67
2023-03-06T22:23:52.697Z,15.13
2023-03-06T22:26:21.341Z,15.02
2023-03-06T22:28:48.083Z,14.84
2023-03-06T22:31:14.570Z,15.02
2023-03-06T22:33:40.971Z,15.45
2023-03-06T22:36:07.341Z,15.84
2023-03-06T22:38:37.506Z,15.90
2023-03-06T22:41:04.228Z,16.41
2023-03-06T22:43:31.678Z,16.83
2023-03-06T22:45:58.208Z,16.19
2023-03-06T22:48:31.942Z,16.13
2023-03-06T22:50:58.396Z,15.43
2023-03-06T22:53:24.761Z,15.60
2023-03-06T22:55:54.404Z,15.22
2023-03-06T22:58:20.923Z,15.88
2023-03-06T23:00:48.311Z,15.87
2023-03-06T23:03:14.914Z,15.66
2023-03-06T23:05:41.275Z,15.62
2023-03-06T23:08:08.658Z,15.39
2023-03-06T23:10:35.225Z,15.27
2023-03-06T23:13:01.606Z,14.56
2023-03-06T23:15:28.023Z,14.92
2023-03-06T23:17:54.414Z,15.37
2023-03-06T23:20:22.985Z,14.76
2023-03-06T23:22:50.250Z,15.01
2023-03-06T23:25:16.644Z,14.81
2023-03-06T23:27:43.416Z,14.74
2023-03-06T23:30:09.765Z,14.78
2023-03-06T23:32:36.143Z,14.84
2023-03-06T23:35:03.545Z,15.23
2023-03-06T23:37:29.951Z,14.69
2023-03-06T23:39:56.529Z,14.47
2023-03-06T23:42:22.970Z,14.33
2023-03-06T23:44:51.689Z,14.75
2023-03-06T23:47:18.079Z,14.29
2023-03-06T23:49:44.480Z,14.13
2023-03-06T23:52:10.902Z,14.67
2023-03-06T23:54:37.258Z,14.07
2023-03-06T23:57:03.782Z,15.13
2023-03-06T23:59:30.331Z,14.80
